EDLN/MGL METAR and TAF weather

Enter ICAO airport designator
Station Type Date Time Source
EDLN METAR 2020/03/28 21:20 UTC NOAA

EDLN 282120Z AUTO 36007KT 9999 // NCD 06/M01 Q1025


Station Type Date Time Source
EDLN Decoded METAR 2020/03/28 21:20 UTC NOAA

Monchengladbach, Germany (EDLN) 51-13-49N 006-30-16E
Mar 28, 2020 - 05:20 PM EDT / 2020.03.28 2120 UTC
Wind: from the N (360 degrees) at 8 MPH (7 KT):0
Visibility: greater than 7 mile(s):0
Temperature: 42 F (6 C)
Dew Point: 30 F (-1 C)
Relative Humidity: 60%
Pressure (altimeter): 30.27 in. Hg (1025 hPa)
ob: EDLN 282120Z AUTO 36007KT 9999 // NCD 06/M01 Q1025
cycle: 21

Station Type Date Time Source
EDLN TAF 2010/02/22 14:20 UTC NOAA

METAR EDLN 221420Z 18010G20KT 090V240 9999 SCT030 BKN045 11/06 Q0986
RMK ATIS R=

Example: see airport list